sensor_id;sensor_type;location;lat;lon;timestamp;temperature;humidity
52187;DHT22;38161;53.020;6.598;2023-05-07T00:02:25;12.60;99.90
52187;DHT22;38161;53.020;6.598;2023-05-07T00:04:51;12.60;99.90
52187;DHT22;38161;53.020;6.598;2023-05-07T00:07:17;12.60;99.90
52187;DHT22;38161;53.020;6.598;2023-05-07T00:09:43;12.60;99.90
52187;DHT22;38161;53.020;6.598;2023-05-07T00:12:09;12.50;99.90
52187;DHT22;38161;53.020;6.598;2023-05-07T00:14:35;12.50;99.90
52187;DHT22;38161;53.020;6.598;2023-05-07T00:17:01;12.50;99.90
52187;DHT22;38161;53.020;6.598;2023-05-07T00:19:27;12.50;99.90
52187;DHT22;38161;53.020;6.598;2023-05-07T00:21:53;12.50;99.90
52187;DHT22;38161;53.020;6.598;2023-05-07T00:24:22;12.50;99.90
52187;DHT22;38161;53.020;6.598;2023-05-07T00:26:48;12.50;99.90
52187;DHT22;38161;53.020;6.598;2023-05-07T00:29:14;12.50;99.90
52187;DHT22;38161;53.020;6.598;2023-05-07T00:31:39;12.40;99.90
52187;DHT22;38161;53.020;6.598;2023-05-07T00:34:05;12.50;99.90
52187;DHT22;38161;53.020;6.598;2023-05-07T00:36:31;12.40;99.90
52187;DHT22;38161;53.020;6.598;2023-05-07T00:38:59;12.40;99.90
52187;DHT22;38161;53.020;6.598;2023-05-07T00:41:26;12.40;99.90
52187;DHT22;38161;53.020;6.598;2023-05-07T00:43:52;12.40;99.90
52187;DHT22;38161;53.020;6.598;2023-05-07T00:46:20;12.30;99.90
52187;DHT22;38161;53.020;6.598;2023-05-07T00:48:46;12.30;99.90
52187;DHT22;38161;53.020;6.598;2023-05-07T00:51:12;12.30;99.90
52187;DHT22;38161;53.020;6.598;2023-05-07T00:53:38;12.30;99.90
52187;DHT22;38161;53.020;6.598;2023-05-07T00:56:06;12.20;99.90
52187;DHT22;38161;53.020;6.598;2023-05-07T00:58:32;12.20;99.90
52187;DHT22;38161;53.020;6.598;2023-05-07T01:00:59;12.20;99.90
52187;DHT22;38161;53.020;6.598;2023-05-07T01:03:25;12.20;99.90
52187;DHT22;38161;53.020;6.598;2023-05-07T01:05:52;12.20;99.90
52187;DHT22;38161;53.020;6.598;2023-05-07T01:08:18;12.10;99.90
52187;DHT22;38161;53.020;6.598;2023-05-07T01:10:45;12.10;99.90
52187;DHT22;38161;53.020;6.598;2023-05-07T01:13:12;12.10;99.90
52187;DHT22;38161;53.020;6.598;2023-05-07T01:15:42;12.10;99.90
52187;DHT22;38161;53.020;6.598;2023-05-07T01:18:08;12.10;99.90
52187;DHT22;38161;53.020;6.598;2023-05-07T01:20:34;12.00;99.90
52187;DHT22;38161;53.020;6.598;2023-05-07T01:23:00;12.00;99.90
52187;DHT22;38161;53.020;6.598;2023-05-07T01:25:27;12.00;99.90
52187;DHT22;38161;53.020;6.598;2023-05-07T01:27:53;12.00;99.90
52187;DHT22;38161;53.020;6.598;2023-05-07T01:30:20;11.90;99.90
52187;DHT22;38161;53.020;6.598;2023-05-07T01:33:08;11.90;99.90
52187;DHT22;38161;53.020;6.598;2023-05-07T01:35:38;11.90;99.90
52187;DHT22;38161;53.020;6.598;2023-05-07T01:38:05;11.80;99.90
52187;DHT22;38161;53.020;6.598;2023-05-07T01:40:31;11.80;99.90
52187;DHT22;38161;53.020;6.598;2023-05-07T01:42:57;11.80;99.90
52187;DHT22;38161;53.020;6.598;2023-05-07T01:45:23;11.80;99.90
52187;DHT22;38161;53.020;6.598;2023-05-07T01:47:49;11.70;99.90
52187;DHT22;38161;53.020;6.598;2023-05-07T01:50:17;11.70;99.90
52187;DHT22;38161;53.020;6.598;2023-05-07T01:52:43;11.70;99.90
52187;DHT22;38161;53.020;6.598;2023-05-07T01:55:09;11.60;99.90
52187;DHT22;38161;53.020;6.598;2023-05-07T01:57:35;11.60;99.90
52187;DHT22;38161;53.020;6.598;2023-05-07T02:00:02;11.60;99.90
52187;DHT22;38161;53.020;6.598;2023-05-07T02:02:31;11.60;99.90
52187;DHT22;38161;53.020;6.598;2023-05-07T02:04:57;11.50;99.90
52187;DHT22;38161;53.020;6.598;2023-05-07T02:07:23;11.50;99.90
52187;DHT22;38161;53.020;6.598;2023-05-07T02:09:49;11.50;99.90
52187;DHT22;38161;53.020;6.598;2023-05-07T02:12:14;11.40;99.90
52187;DHT22;38161;53.020;6.598;2023-05-07T02:14:40;11.40;99.90
52187;DHT22;38161;53.020;6.598;2023-05-07T02:17:07;11.40;99.90
52187;DHT22;38161;53.020;6.598;2023-05-07T02:19:33;11.40;99.90
52187;DHT22;38161;53.020;6.598;2023-05-07T02:21:58;11.40;99.90
52187;DHT22;38161;53.020;6.598;2023-05-07T02:24:24;11.30;99.90
52187;DHT22;38161;53.020;6.598;2023-05-07T02:26:50;11.30;99.90
52187;DHT22;38161;53.020;6.598;2023-05-07T02:29:16;11.30;99.90
52187;DHT22;38161;53.020;6.598;2023-05-07T02:31:41;11.30;99.90
52187;DHT22;38161;53.020;6.598;2023-05-07T02:34:07;11.20;99.90
52187;DHT22;38161;53.020;6.598;2023-05-07T02:36:33;11.30;99.90
52187;DHT22;38161;53.020;6.598;2023-05-07T02:38:58;11.20;99.90
52187;DHT22;38161;53.020;6.598;2023-05-07T02:41:24;11.20;99.90
52187;DHT22;38161;53.020;6.598;2023-05-07T02:43:50;11.20;99.90
52187;DHT22;38161;53.020;6.598;2023-05-07T02:46:16;11.20;99.90
52187;DHT22;38161;53.020;6.598;2023-05-07T02:48:41;11.10;99.90
52187;DHT22;38161;53.020;6.598;2023-05-07T02:51:07;11.10;99.90
52187;DHT22;38161;53.020;6.598;2023-05-07T02:53:33;11.10;99.90
52187;DHT22;38161;53.020;6.598;2023-05-07T02:56:00;11.10;99.90
52187;DHT22;38161;53.020;6.598;2023-05-07T02:58:26;11.00;99.90
52187;DHT22;38161;53.020;6.598;2023-05-07T03:00:52;11.00;99.90
52187;DHT22;38161;53.020;6.598;2023-05-07T03:03:18;11.00;99.90
52187;DHT22;38161;53.020;6.598;2023-05-07T03:05:44;11.00;99.90
52187;DHT22;38161;53.020;6.598;2023-05-07T03:08:10;11.00;99.90
52187;DHT22;38161;53.020;6.598;2023-05-07T03:10:36;10.90;99.90
52187;DHT22;38161;53.020;6.598;2023-05-07T03:13:02;10.90;99.90
52187;DHT22;38161;53.020;6.598;2023-05-07T03:15:28;10.90;99.90
52187;DHT22;38161;53.020;6.598;2023-05-07T03:17:54;10.90;99.90
52187;DHT22;38161;53.020;6.598;2023-05-07T03:20:20;10.90;99.90
52187;DHT22;38161;53.020;6.598;2023-05-07T03:22:45;10.90;99.90
52187;DHT22;38161;53.020;6.598;2023-05-07T03:25:12;10.90;99.90
52187;DHT22;38161;53.020;6.598;2023-05-07T03:27:39;10.80;99.90
52187;DHT22;38161;53.020;6.598;2023-05-07T03:30:07;10.90;99.90
52187;DHT22;38161;53.020;6.598;2023-05-07T03:32:34;10.90;99.90
52187;DHT22;38161;53.020;6.598;2023-05-07T03:35:00;10.90;99.90
52187;DHT22;38161;53.020;6.598;2023-05-07T03:37:26;10.80;99.90
52187;DHT22;38161;53.020;6.598;2023-05-07T03:39:52;10.90;99.90
52187;DHT22;38161;53.020;6.598;2023-05-07T03:42:18;10.90;99.90
52187;DHT22;38161;53.020;6.598;2023-05-07T03:44:43;10.80;99.90
52187;DHT22;38161;53.020;6.598;2023-05-07T03:47:09;10.90;99.90
52187;DHT22;38161;53.020;6.598;2023-05-07T03:49:36;10.90;99.90
52187;DHT22;38161;53.020;6.598;2023-05-07T03:52:02;10.90;99.90
52187;DHT22;38161;53.020;6.598;2023-05-07T03:54:28;10.80;99.90
52187;DHT22;38161;53.020;6.598;2023-05-07T03:56:53;10.80;99.90
52187;DHT22;38161;53.020;6.598;2023-05-07T03:59:19;10.80;99.90
52187;DHT22;38161;53.020;6.598;2023-05-07T04:01:45;10.80;99.90
52187;DHT22;38161;53.020;6.598;2023-05-07T04:04:10;10.80;99.90
52187;DHT22;38161;53.020;6.598;2023-05-07T04:06:37;10.80;99.90
52187;DHT22;38161;53.020;6.598;2023-05-07T04:09:02;10.80;99.90
52187;DHT22;38161;53.020;6.598;2023-05-07T04:11:28;10.80;99.90
52187;DHT22;38161;53.020;6.598;2023-05-07T04:13:54;10.80;99.90
52187;DHT22;38161;53.020;6.598;2023-05-07T04:16:20;10.80;99.90
52187;DHT22;38161;53.020;6.598;2023-05-07T04:18:46;10.80;99.90
52187;DHT22;38161;53.020;6.598;2023-05-07T04:21:19;10.80;99.90
52187;DHT22;38161;53.020;6.598;2023-05-07T04:23:46;10.80;99.90
52187;DHT22;38161;53.020;6.598;2023-05-07T04:26:12;10.80;99.90
52187;DHT22;38161;53.020;6.598;2023-05-07T04:28:39;10.70;99.90
52187;DHT22;38161;53.020;6.598;2023-05-07T04:31:05;10.70;99.90
52187;DHT22;38161;53.020;6.598;2023-05-07T04:33:32;10.70;99.90
52187;DHT22;38161;53.020;6.598;2023-05-07T04:36:01;10.70;99.90
52187;DHT22;38161;53.020;6.598;2023-05-07T04:38:31;10.80;99.90
52187;DHT22;38161;53.020;6.598;2023-05-07T04:41:03;10.70;99.90
52187;DHT22;38161;53.020;6.598;2023-05-07T04:43:29;10.70;99.90
52187;DHT22;38161;53.020;6.598;2023-05-07T04:45:55;10.70;99.90
52187;DHT22;38161;53.020;6.598;2023-05-07T04:48:20;10.70;99.90
52187;DHT22;38161;53.020;6.598;2023-05-07T04:50:50;10.70;99.90
52187;DHT22;38161;53.020;6.598;2023-05-07T04:53:16;10.70;99.90
52187;DHT22;38161;53.020;6.598;2023-05-07T04:55:43;10.70;99.90
52187;DHT22;38161;53.020;6.598;2023-05-07T04:58:09;10.70;99.90
52187;DHT22;38161;53.020;6.598;2023-05-07T05:00:35;10.70;99.90
52187;DHT22;38161;53.020;6.598;2023-05-07T05:03:00;10.70;99.90
52187;DHT22;38161;53.020;6.598;2023-05-07T05:05:26;10.70;99.90
52187;DHT22;38161;53.020;6.598;2023-05-07T05:07:52;10.70;99.90
52187;DHT22;38161;53.020;6.598;2023-05-07T05:10:18;10.70;99.90
52187;DHT22;38161;53.020;6.598;2023-05-07T05:12:44;10.70;99.90
52187;DHT22;38161;53.020;6.598;2023-05-07T05:15:12;10.70;99.90
52187;DHT22;38161;53.020;6.598;2023-05-07T05:17:38;10.70;99.90
52187;DHT22;38161;53.020;6.598;2023-05-07T05:20:04;10.70;99.90
52187;DHT22;38161;53.020;6.598;2023-05-07T05:22:31;10.70;99.90
52187;DHT22;38161;53.020;6.598;2023-05-07T05:24:57;10.70;99.90
52187;DHT22;38161;53.020;6.598;2023-05-07T05:27:23;10.70;99.90
52187;DHT22;38161;53.020;6.598;2023-05-07T05:29:49;10.70;99.90
52187;DHT22;38161;53.020;6.598;2023-05-07T05:32:15;10.70;99.90
52187;DHT22;38161;53.020;6.598;2023-05-07T05:34:41;10.70;99.90
52187;DHT22;38161;53.020;6.598;2023-05-07T05:37:06;10.70;99.90
52187;DHT22;38161;53.020;6.598;2023-05-07T05:39:32;10.70;99.90
52187;DHT22;38161;53.020;6.598;2023-05-07T05:41:58;10.70;99.90
52187;DHT22;38161;53.020;6.598;2023-05-07T05:44:24;10.70;99.90
52187;DHT22;38161;53.020;6.598;2023-05-07T05:46:50;10.70;99.90
52187;DHT22;38161;53.020;6.598;2023-05-07T05:49:16;10.70;99.90
52187;DHT22;38161;53.020;6.598;2023-05-07T05:51:42;10.80;99.90
52187;DHT22;38161;53.020;6.598;2023-05-07T05:54:09;10.80;99.90
52187;DHT22;38161;53.020;6.598;2023-05-07T05:56:35;10.80;99.90
52187;DHT22;38161;53.020;6.598;2023-05-07T05:59:00;10.80;99.90
52187;DHT22;38161;53.020;6.598;2023-05-07T06:01:26;10.80;99.90
52187;DHT22;38161;53.020;6.598;2023-05-07T06:03:52;10.90;99.90
52187;DHT22;38161;53.020;6.598;2023-05-07T06:06:18;10.80;99.90
52187;DHT22;38161;53.020;6.598;2023-05-07T06:08:43;10.80;99.90
52187;DHT22;38161;53.020;6.598;2023-05-07T06:11:09;10.90;99.90
52187;DHT22;38161;53.020;6.598;2023-05-07T06:13:35;10.90;99.90
52187;DHT22;38161;53.020;6.598;2023-05-07T06:16:01;10.90;99.90
52187;DHT22;38161;53.020;6.598;2023-05-07T06:18:27;11.00;99.90
52187;DHT22;38161;53.020;6.598;2023-05-07T06:20:53;11.00;99.90
52187;DHT22;38161;53.020;6.598;2023-05-07T06:23:18;11.00;99.90
52187;DHT22;38161;53.020;6.598;2023-05-07T06:25:53;11.00;99.90
52187;DHT22;38161;53.020;6.598;2023-05-07T06:28:19;11.00;99.90
52187;DHT22;38161;53.020;6.598;2023-05-07T06:30:45;11.00;99.90
52187;DHT22;38161;53.020;6.598;2023-05-07T06:33:11;11.00;99.90
52187;DHT22;38161;53.020;6.598;2023-05-07T06:35:36;11.00;99.90
52187;DHT22;38161;53.020;6.598;2023-05-07T06:38:02;11.00;99.90
52187;DHT22;38161;53.020;6.598;2023-05-07T06:40:28;11.00;99.90
52187;DHT22;38161;53.020;6.598;2023-05-07T06:42:54;11.10;99.90
52187;DHT22;38161;53.020;6.598;2023-05-07T06:45:20;11.10;99.90
52187;DHT22;38161;53.020;6.598;2023-05-07T06:47:45;11.10;99.90
52187;DHT22;38161;53.020;6.598;2023-05-07T06:50:12;11.10;99.90
52187;DHT22;38161;53.020;6.598;2023-05-07T06:52:37;11.10;99.90
52187;DHT22;38161;53.020;6.598;2023-05-07T06:55:03;11.10;99.90
52187;DHT22;38161;53.020;6.598;2023-05-07T06:57:29;11.10;99.90
52187;DHT22;38161;53.020;6.598;2023-05-07T06:59:55;11.10;99.90
52187;DHT22;38161;53.020;6.598;2023-05-07T07:02:21;11.10;99.90
52187;DHT22;38161;53.020;6.598;2023-05-07T07:04:47;11.20;99.90
52187;DHT22;38161;53.020;6.598;2023-05-07T07:07:12;11.20;99.90
52187;DHT22;38161;53.020;6.598;2023-05-07T07:09:38;11.20;99.90
52187;DHT22;38161;53.020;6.598;2023-05-07T07:12:04;11.30;99.90
52187;DHT22;38161;53.020;6.598;2023-05-07T07:14:30;11.40;99.90
52187;DHT22;38161;53.020;6.598;2023-05-07T07:16:56;11.40;99.90
52187;DHT22;38161;53.020;6.598;2023-05-07T07:19:22;11.50;99.90
52187;DHT22;38161;53.020;6.598;2023-05-07T07:21:47;11.50;99.90
52187;DHT22;38161;53.020;6.598;2023-05-07T07:24:14;11.50;99.90
52187;DHT22;38161;53.020;6.598;2023-05-07T07:26:44;11.50;99.90
52187;DHT22;38161;53.020;6.598;2023-05-07T07:29:10;11.50;99.90
52187;DHT22;38161;53.020;6.598;2023-05-07T07:31:36;11.60;99.90
52187;DHT22;38161;53.020;6.598;2023-05-07T07:34:02;11.50;99.90
52187;DHT22;38161;53.020;6.598;2023-05-07T07:36:28;11.60;99.90
52187;DHT22;38161;53.020;6.598;2023-05-07T07:38:54;11.70;99.90
52187;DHT22;38161;53.020;6.598;2023-05-07T07:41:20;11.70;99.90
52187;DHT22;38161;53.020;6.598;2023-05-07T07:43:46;11.70;99.90
52187;DHT22;38161;53.020;6.598;2023-05-07T07:46:12;11.80;99.90
52187;DHT22;38161;53.020;6.598;2023-05-07T07:48:38;11.80;99.90
52187;DHT22;38161;53.020;6.598;2023-05-07T07:51:04;11.90;99.90
52187;DHT22;38161;53.020;6.598;2023-05-07T07:53:30;11.90;99.90
52187;DHT22;38161;53.020;6.598;2023-05-07T07:55:56;12.00;99.90
52187;DHT22;38161;53.020;6.598;2023-05-07T07:58:22;12.00;99.90
52187;DHT22;38161;53.020;6.598;2023-05-07T08:00:48;12.10;99.90
52187;DHT22;38161;53.020;6.598;2023-05-07T08:03:14;12.10;99.90
52187;DHT22;38161;53.020;6.598;2023-05-07T08:05:42;12.20;99.90
52187;DHT22;38161;53.020;6.598;2023-05-07T08:08:08;12.20;99.90
52187;DHT22;38161;53.020;6.598;2023-05-07T08:10:34;12.20;99.90
52187;DHT22;38161;53.020;6.598;2023-05-07T08:13:04;12.20;99.90
52187;DHT22;38161;53.020;6.598;2023-05-07T08:15:30;12.20;99.90
52187;DHT22;38161;53.020;6.598;2023-05-07T08:17:56;12.20;99.90
52187;DHT22;38161;53.020;6.598;2023-05-07T08:20:23;12.20;99.90
52187;DHT22;38161;53.020;6.598;2023-05-07T08:22:49;12.10;99.90
52187;DHT22;38161;53.020;6.598;2023-05-07T08:25:15;12.20;99.90
52187;DHT22;38161;53.020;6.598;2023-05-07T08:27:40;12.20;99.90
52187;DHT22;38161;53.020;6.598;2023-05-07T08:30:07;12.20;99.90
52187;DHT22;38161;53.020;6.598;2023-05-07T08:32:32;12.20;99.90
52187;DHT22;38161;53.020;6.598;2023-05-07T08:34:58;12.30;99.90
52187;DHT22;38161;53.020;6.598;2023-05-07T08:37:24;12.40;99.90
52187;DHT22;38161;53.020;6.598;2023-05-07T08:39:50;12.50;99.90
52187;DHT22;38161;53.020;6.598;2023-05-07T08:42:16;12.60;99.90
52187;DHT22;38161;53.020;6.598;2023-05-07T08:44:45;12.60;99.90
52187;DHT22;38161;53.020;6.598;2023-05-07T08:47:14;12.70;99.90
52187;DHT22;38161;53.020;6.598;2023-05-07T08:49:39;12.80;99.90
52187;DHT22;38161;53.020;6.598;2023-05-07T08:52:06;12.90;99.90
52187;DHT22;38161;53.020;6.598;2023-05-07T08:54:32;12.90;99.90
52187;DHT22;38161;53.020;6.598;2023-05-07T08:56:59;12.90;99.90
52187;DHT22;38161;53.020;6.598;2023-05-07T08:59:25;12.90;99.90
52187;DHT22;38161;53.020;6.598;2023-05-07T09:01:51;12.90;99.90
52187;DHT22;38161;53.020;6.598;2023-05-07T09:04:17;12.80;99.90
52187;DHT22;38161;53.020;6.598;2023-05-07T09:06:43;12.90;99.90
52187;DHT22;38161;53.020;6.598;2023-05-07T09:09:08;12.90;99.90
52187;DHT22;38161;53.020;6.598;2023-05-07T09:11:34;12.90;99.90
52187;DHT22;38161;53.020;6.598;2023-05-07T09:14:00;13.10;99.90
52187;DHT22;38161;53.020;6.598;2023-05-07T09:16:30;13.20;99.90
52187;DHT22;38161;53.020;6.598;2023-05-07T09:18:57;13.40;99.90
52187;DHT22;38161;53.020;6.598;2023-05-07T09:21:23;13.50;99.90
52187;DHT22;38161;53.020;6.598;2023-05-07T09:23:53;13.70;99.90
52187;DHT22;38161;53.020;6.598;2023-05-07T09:26:21;13.90;99.90
52187;DHT22;38161;53.020;6.598;2023-05-07T09:28:47;14.10;99.90
52187;DHT22;38161;53.020;6.598;2023-05-07T09:31:13;14.30;99.90
52187;DHT22;38161;53.020;6.598;2023-05-07T09:33:39;14.50;99.90
52187;DHT22;38161;53.020;6.598;2023-05-07T09:36:06;14.60;99.90
52187;DHT22;38161;53.020;6.598;2023-05-07T09:38:33;14.70;99.90
52187;DHT22;38161;53.020;6.598;2023-05-07T09:41:07;14.70;99.90
52187;DHT22;38161;53.020;6.598;2023-05-07T09:43:34;14.70;99.90
52187;DHT22;38161;53.020;6.598;2023-05-07T09:46:14;14.80;99.90
52187;DHT22;38161;53.020;6.598;2023-05-07T09:48:42;14.80;99.90
52187;DHT22;38161;53.020;6.598;2023-05-07T09:53:50;14.90;99.90
52187;DHT22;38161;53.020;6.598;2023-05-07T09:56:17;14.90;99.90
52187;DHT22;38161;53.020;6.598;2023-05-07T09:58:45;14.80;99.90
52187;DHT22;38161;53.020;6.598;2023-05-07T10:01:12;14.70;99.90
52187;DHT22;38161;53.020;6.598;2023-05-07T10:03:41;14.70;99.90
52187;DHT22;38161;53.020;6.598;2023-05-07T10:06:12;14.70;99.90
52187;DHT22;38161;53.020;6.598;2023-05-07T10:08:38;14.60;99.90
52187;DHT22;38161;53.020;6.598;2023-05-07T10:11:05;14.70;99.90
52187;DHT22;38161;53.020;6.598;2023-05-07T10:13:33;14.80;99.90
52187;DHT22;38161;53.020;6.598;2023-05-07T10:16:04;15.00;99.90
52187;DHT22;38161;53.020;6.598;2023-05-07T10:18:33;15.30;99.90
52187;DHT22;38161;53.020;6.598;2023-05-07T10:23:41;15.70;99.90
52187;DHT22;38161;53.020;6.598;2023-05-07T10:26:10;16.00;99.90
52187;DHT22;38161;53.020;6.598;2023-05-07T10:28:42;16.10;99.90
52187;DHT22;38161;53.020;6.598;2023-05-07T10:33:54;16.30;99.90
52187;DHT22;38161;53.020;6.598;2023-05-07T10:36:22;16.20;99.90
52187;DHT22;38161;53.020;6.598;2023-05-07T10:38:49;16.20;99.90
52187;DHT22;38161;53.020;6.598;2023-05-07T10:41:15;16.10;99.90
52187;DHT22;38161;53.020;6.598;2023-05-07T10:43:45;16.10;99.90
52187;DHT22;38161;53.020;6.598;2023-05-07T10:46:16;16.20;99.90
52187;DHT22;38161;53.020;6.598;2023-05-07T10:51:26;16.20;99.90
52187;DHT22;38161;53.020;6.598;2023-05-07T10:56:45;16.20;99.90
52187;DHT22;38161;53.020;6.598;2023-05-07T11:01:59;16.70;99.90
52187;DHT22;38161;53.020;6.598;2023-05-07T11:04:27;16.90;99.90
52187;DHT22;38161;53.020;6.598;2023-05-07T11:07:14;17.10;99.90
52187;DHT22;38161;53.020;6.598;2023-05-07T11:15:12;17.70;99.90
52187;DHT22;38161;53.020;6.598;2023-05-07T11:17:58;17.60;99.90
52187;DHT22;38161;53.020;6.598;2023-05-07T11:20:46;17.50;99.90
52187;DHT22;38161;53.020;6.598;2023-05-07T11:28:28;17.80;99.90
52187;DHT22;38161;53.020;6.598;2023-05-07T11:30:54;17.90;99.90
52187;DHT22;38161;53.020;6.598;2023-05-07T11:33:20;18.00;99.90
52187;DHT22;38161;53.020;6.598;2023-05-07T11:35:46;18.10;99.90
52187;DHT22;38161;53.020;6.598;2023-05-07T11:38:13;18.20;99.90
52187;DHT22;38161;53.020;6.598;2023-05-07T11:40:58;18.40;99.90
52187;DHT22;38161;53.020;6.598;2023-05-07T11:43:28;18.60;99.90
52187;DHT22;38161;53.020;6.598;2023-05-07T11:45:54;18.70;99.90
52187;DHT22;38161;53.020;6.598;2023-05-07T11:48:21;18.80;99.90
52187;DHT22;38161;53.020;6.598;2023-05-07T11:51:14;18.80;99.90
52187;DHT22;38161;53.020;6.598;2023-05-07T11:53:45;18.70;99.90
52187;DHT22;38161;53.020;6.598;2023-05-07T11:56:12;18.60;99.90
52187;DHT22;38161;53.020;6.598;2023-05-07T11:58:39;18.60;99.90
52187;DHT22;38161;53.020;6.598;2023-05-07T12:01:07;18.70;99.90
52187;DHT22;38161;53.020;6.598;2023-05-07T12:03:35;18.80;99.90
52187;DHT22;38161;53.020;6.598;2023-05-07T12:06:03;19.00;99.90
52187;DHT22;38161;53.020;6.598;2023-05-07T12:08:31;18.90;99.90
52187;DHT22;38161;53.020;6.598;2023-05-07T12:10:56;18.80;99.90
52187;DHT22;38161;53.020;6.598;2023-05-07T12:13:25;18.60;99.90
52187;DHT22;38161;53.020;6.598;2023-05-07T12:15:55;18.50;99.90
52187;DHT22;38161;53.020;6.598;2023-05-07T12:18:22;18.50;99.90
52187;DHT22;38161;53.020;6.598;2023-05-07T12:20:48;18.70;99.90
52187;DHT22;38161;53.020;6.598;2023-05-07T12:23:15;18.80;99.90
52187;DHT22;38161;53.020;6.598;2023-05-07T12:25:42;18.80;99.90
52187;DHT22;38161;53.020;6.598;2023-05-07T12:28:19;18.90;99.90
52187;DHT22;38161;53.020;6.598;2023-05-07T12:30:47;18.80;99.90
52187;DHT22;38161;53.020;6.598;2023-05-07T12:33:24;18.80;99.90
52187;DHT22;38161;53.020;6.598;2023-05-07T12:35:53;19.00;99.90
52187;DHT22;38161;53.020;6.598;2023-05-07T12:38:19;18.80;99.90
52187;DHT22;38161;53.020;6.598;2023-05-07T12:40:47;18.90;99.90
52187;DHT22;38161;53.020;6.598;2023-05-07T12:45:50;18.90;99.90
52187;DHT22;38161;53.020;6.598;2023-05-07T12:48:16;18.90;99.90
52187;DHT22;38161;53.020;6.598;2023-05-07T12:50:42;18.80;99.90
52187;DHT22;38161;53.020;6.598;2023-05-07T12:53:10;18.80;99.90
52187;DHT22;38161;53.020;6.598;2023-05-07T12:55:43;18.80;99.90
52187;DHT22;38161;53.020;6.598;2023-05-07T12:58:33;18.90;99.90
52187;DHT22;38161;53.020;6.598;2023-05-07T13:01:05;19.00;99.90
52187;DHT22;38161;53.020;6.598;2023-05-07T13:03:35;18.90;99.90
52187;DHT22;38161;53.020;6.598;2023-05-07T13:06:11;18.90;99.90
52187;DHT22;38161;53.020;6.598;2023-05-07T13:08:39;18.90;99.90
52187;DHT22;38161;53.020;6.598;2023-05-07T13:11:09;19.10;99.90
52187;DHT22;38161;53.020;6.598;2023-05-07T13:13:37;19.40;99.90
52187;DHT22;38161;53.020;6.598;2023-05-07T13:16:03;19.50;99.90
52187;DHT22;38161;53.020;6.598;2023-05-07T13:18:30;19.60;99.90
52187;DHT22;38161;53.020;6.598;2023-05-07T13:20:57;19.60;99.90
52187;DHT22;38161;53.020;6.598;2023-05-07T13:23:23;19.70;99.90
52187;DHT22;38161;53.020;6.598;2023-05-07T13:25:49;19.60;99.90
52187;DHT22;38161;53.020;6.598;2023-05-07T13:28:16;19.70;99.90
52187;DHT22;38161;53.020;6.598;2023-05-07T13:30:42;19.60;99.90
52187;DHT22;38161;53.020;6.598;2023-05-07T13:33:08;19.60;99.90
52187;DHT22;38161;53.020;6.598;2023-05-07T13:35:34;19.60;99.90
52187;DHT22;38161;53.020;6.598;2023-05-07T13:38:00;19.60;99.90
52187;DHT22;38161;53.020;6.598;2023-05-07T13:40:26;19.60;99.90
52187;DHT22;38161;53.020;6.598;2023-05-07T13:42:53;19.60;99.90
52187;DHT22;38161;53.020;6.598;2023-05-07T13:45:19;19.60;99.90
52187;DHT22;38161;53.020;6.598;2023-05-07T13:47:46;19.70;99.90
52187;DHT22;38161;53.020;6.598;2023-05-07T13:50:12;19.90;99.90
52187;DHT22;38161;53.020;6.598;2023-05-07T13:52:44;20.20;99.90
52187;DHT22;38161;53.020;6.598;2023-05-07T13:55:20;20.40;99.90
52187;DHT22;38161;53.020;6.598;2023-05-07T13:57:46;20.50;99.90
52187;DHT22;38161;53.020;6.598;2023-05-07T14:00:13;20.70;99.90
52187;DHT22;38161;53.020;6.598;2023-05-07T14:02:39;20.80;99.90
52187;DHT22;38161;53.020;6.598;2023-05-07T14:05:06;20.90;99.90
52187;DHT22;38161;53.020;6.598;2023-05-07T14:07:32;21.00;99.90
52187;DHT22;38161;53.020;6.598;2023-05-07T14:09:57;20.90;99.90
52187;DHT22;38161;53.020;6.598;2023-05-07T14:12:24;20.70;99.90
52187;DHT22;38161;53.020;6.598;2023-05-07T14:14:49;20.60;99.90
52187;DHT22;38161;53.020;6.598;2023-05-07T14:17:17;20.40;99.90
52187;DHT22;38161;53.020;6.598;2023-05-07T14:19:43;20.40;99.90
52187;DHT22;38161;53.020;6.598;2023-05-07T14:22:09;20.30;99.90
52187;DHT22;38161;53.020;6.598;2023-05-07T14:24:35;20.20;99.90
52187;DHT22;38161;53.020;6.598;2023-05-07T14:27:01;20.10;99.90
52187;DHT22;38161;53.020;6.598;2023-05-07T14:29:28;20.00;99.90
52187;DHT22;38161;53.020;6.598;2023-05-07T14:31:53;20.10;99.90
52187;DHT22;38161;53.020;6.598;2023-05-07T14:34:19;20.10;99.90
52187;DHT22;38161;53.020;6.598;2023-05-07T14:36:45;20.00;99.90
52187;DHT22;38161;53.020;6.598;2023-05-07T14:39:11;19.90;99.90
52187;DHT22;38161;53.020;6.598;2023-05-07T14:41:37;19.80;99.90
52187;DHT22;38161;53.020;6.598;2023-05-07T14:44:03;19.60;99.90
52187;DHT22;38161;53.020;6.598;2023-05-07T14:46:29;19.60;99.90
52187;DHT22;38161;53.020;6.598;2023-05-07T14:48:56;19.50;99.90
52187;DHT22;38161;53.020;6.598;2023-05-07T14:51:22;19.50;99.90
52187;DHT22;38161;53.020;6.598;2023-05-07T14:53:50;19.50;99.90
52187;DHT22;38161;53.020;6.598;2023-05-07T14:56:16;19.40;99.90
52187;DHT22;38161;53.020;6.598;2023-05-07T14:58:42;19.40;99.90
52187;DHT22;38161;53.020;6.598;2023-05-07T15:01:08;19.50;99.90
52187;DHT22;38161;53.020;6.598;2023-05-07T15:03:34;19.50;99.90
52187;DHT22;38161;53.020;6.598;2023-05-07T15:06:00;19.60;99.90
52187;DHT22;38161;53.020;6.598;2023-05-07T15:08:26;19.70;99.90
52187;DHT22;38161;53.020;6.598;2023-05-07T15:10:52;19.70;99.90
52187;DHT22;38161;53.020;6.598;2023-05-07T15:13:18;19.60;99.90
52187;DHT22;38161;53.020;6.598;2023-05-07T15:15:44;19.60;99.90
52187;DHT22;38161;53.020;6.598;2023-05-07T15:18:11;19.50;99.90
52187;DHT22;38161;53.020;6.598;2023-05-07T15:20:37;19.50;99.90
52187;DHT22;38161;53.020;6.598;2023-05-07T15:23:03;19.40;99.90
52187;DHT22;38161;53.020;6.598;2023-05-07T15:25:31;19.40;99.90
52187;DHT22;38161;53.020;6.598;2023-05-07T15:27:58;19.40;99.90
52187;DHT22;38161;53.020;6.598;2023-05-07T15:30:24;19.40;99.90
52187;DHT22;38161;53.020;6.598;2023-05-07T15:32:50;19.40;99.90
52187;DHT22;38161;53.020;6.598;2023-05-07T15:35:16;19.40;99.90
52187;DHT22;38161;53.020;6.598;2023-05-07T15:37:42;19.40;99.90
52187;DHT22;38161;53.020;6.598;2023-05-07T15:40:09;19.40;99.90
52187;DHT22;38161;53.020;6.598;2023-05-07T15:42:36;19.40;99.90
52187;DHT22;38161;53.020;6.598;2023-05-07T15:45:01;19.30;99.90
52187;DHT22;38161;53.020;6.598;2023-05-07T15:47:27;19.20;99.90
52187;DHT22;38161;53.020;6.598;2023-05-07T15:49:53;19.30;99.90
52187;DHT22;38161;53.020;6.598;2023-05-07T15:52:19;19.30;99.90
52187;DHT22;38161;53.020;6.598;2023-05-07T15:54:46;19.20;99.90
52187;DHT22;38161;53.020;6.598;2023-05-07T15:57:12;19.10;99.90
52187;DHT22;38161;53.020;6.598;2023-05-07T15:59:37;19.00;99.90